Time;durP1;ratioP1;P1;durP2;ratioP2;P2;SDS_P1;SDS_P2;PMS_P1;PMS_P2;Temp;Humidity;BMP_temperature;BMP_pressure;BME280_temperature;BME280_humidity;BME280_pressure;Samples;Min_cycle;Max_cycle;Signal;HPM_P1;HPM_P2
2022/08/29 00:03:56;;;;;;;1999.90;999.90;;;;;;;17.27;57.96;99485.22;10198088;23;20040;-81
2022/08/29 00:08:00;;;;;;;1999.90;999.90;;;;;;;17.05;58.69;99487.59;10201127;23;20043;-80
2022/08/29 00:12:02;;;;;;;1999.90;999.90;;;;;;;16.85;59.83;99491.66;10201151;23;20024;-80
2022/08/29 00:16:03;;;;;;;1999.90;999.90;;;;;;;16.68;60.73;99488.66;10172374;23;20028;-80
2022/08/29 00:20:07;;;;;;;1999.90;999.90;;;;;;;16.42;61.76;99488.47;10202452;23;20028;-81
2022/08/29 00:24:10;;;;;;;1999.90;999.90;;;;;;;16.40;62.58;99487.66;10203156;23;20016;-81
2022/08/29 00:28:11;;;;;;;1999.90;999.90;;;;;;;16.37;62.80;99488.59;10244617;23;20565;-80
2022/08/29 00:32:13;;;;;;;1999.90;999.90;;;;;;;16.25;63.45;99481.91;10196881;23;20087;-80
2022/08/29 00:36:15;;;;;;;1999.90;999.90;;;;;;;16.12;63.61;99493.59;10268843;23;20017;-80
2022/08/29 00:40:22;;;;;;;1999.90;999.90;;;;;;;16.01;64.56;99495.66;10251188;23;20063;-80
2022/08/29 00:44:24;;;;;;;1999.90;999.90;;;;;;;15.92;64.50;99498.47;10250343;23;20028;-80
2022/08/29 00:48:25;;;;;;;1999.90;999.90;;;;;;;15.82;65.49;99503.09;10246426;23;20411;-80
2022/08/29 00:52:40;;;;;;;1999.90;999.90;;;;;;;15.73;66.06;99492.81;10250896;23;20408;-80
2022/08/29 00:56:44;;;;;;;1999.90;999.90;;;;;;;15.66;66.07;99502.59;10267064;23;20031;-81
2022/08/29 01:00:47;;;;;;;1999.90;999.90;;;;;;;15.58;66.62;99504.47;10246271;23;20021;-80
2022/08/29 01:04:49;;;;;;;1999.90;999.90;;;;;;;15.38;66.44;99497.06;10293159;23;20012;-80
2022/08/29 01:08:50;;;;;;;1999.90;999.90;;;;;;;15.27;66.85;99512.16;10275793;23;20553;-80
2022/08/29 01:12:58;;;;;;;1999.90;999.90;;;;;;;15.26;67.19;99512.16;10276085;23;20056;-80
2022/08/29 01:17:01;;;;;;;;;;;;;;;15.22;66.77;99514.00;10246538;23;20028;-80
2022/08/29 01:21:06;;;;;;;;;;;;;;;15.19;67.37;99514.06;10252705;23;19920;-80
2022/08/29 01:25:12;;;;;;;1999.90;999.90;;;;;;;15.08;67.96;99510.81;10277471;23;20149;-79
2022/08/29 01:29:15;;;;;;;1999.90;999.90;;;;;;;15.03;68.31;99517.88;10276827;23;20024;-80
2022/08/29 01:33:17;;;;;;;1999.90;999.90;;;;;;;14.99;68.20;99518.84;10245996;23;20028;-80
2022/08/29 01:37:19;;;;;;;1999.90;999.90;;;;;;;14.92;68.70;99522.50;10251180;23;20031;-80
2022/08/29 01:41:21;;;;;;;1999.90;999.90;;;;;;;14.85;69.02;99519.13;10252185;23;20063;-80
2022/08/29 01:45:23;;;;;;;1999.90;999.90;;;;;;;14.77;69.68;99523.66;10246976;23;20059;-80
2022/08/29 01:49:26;;;;;;;1999.90;999.90;;;;;;;14.69;69.65;99526.38;10254041;23;20728;-80
2022/08/29 01:53:27;;;;;;;1999.90;999.90;;;;;;;14.63;70.13;99526.50;10254601;23;20679;-80
2022/08/29 01:57:29;;;;;;;1999.90;999.90;;;;;;;14.59;70.03;99529.22;10278849;23;20023;-80
2022/08/29 02:01:41;;;;;;;1999.90;999.90;;;;;;;14.55;70.85;99525.81;10254830;23;20028;-80
2022/08/29 02:05:43;;;;;;;1999.90;999.90;;;;;;;14.47;70.57;99527.69;10282662;23;20104;-80
2022/08/29 02:09:45;;;;;;;1999.90;999.90;;;;;;;14.44;71.67;99533.84;10284596;23;20025;-80
2022/08/29 02:13:57;;;;;;;1999.90;999.90;;;;;;;14.41;71.44;99526.03;10299876;23;20682;-80
2022/08/29 02:17:59;;;;;;;1999.90;999.90;;;;;;;14.40;71.85;99518.22;10253700;23;20024;-80
2022/08/29 02:22:01;;;;;;;1999.90;999.90;;;;;;;14.36;72.19;99521.75;10284991;23;20265;-80
2022/08/29 02:26:04;;;;;;;1999.90;999.90;;;;;;;14.33;72.24;99524.41;10283092;23;20339;-80
2022/08/29 02:30:06;;;;;;;1999.90;999.90;;;;;;;14.29;71.75;99515.78;10254721;22;20542;-80
2022/08/29 02:34:08;;;;;;;1999.90;999.90;;;;;;;14.21;72.35;99517.66;10282034;23;20028;-80
2022/08/29 02:38:12;;;;;;;1999.90;999.90;;;;;;;14.15;72.37;99521.22;10283926;23;20081;-81
2022/08/29 02:42:14;;;;;;;;;;;;;;;13.99;72.48;99527.59;10276243;23;20081;-80
2022/08/29 02:46:18;;;;;;;1999.90;999.90;;;;;;;13.97;72.24;99526.75;10254042;23;19916;-80
2022/08/29 02:50:20;;;;;;;1999.90;999.90;;;;;;;13.87;73.07;99520.84;10300518;23;20432;-80
2022/08/29 02:54:22;;;;;;;1999.90;999.90;;;;;;;13.78;74.21;99525.31;10258148;23;20039;-81
2022/08/29 02:58:24;;;;;;;1999.90;999.90;;;;;;;13.81;74.72;99518.28;10257962;23;20028;-81
2022/08/29 03:02:26;;;;;;;1999.90;999.90;;;;;;;13.80;74.24;99513.97;10252580;23;20029;-80
2022/08/29 03:06:28;;;;;;;;;;;;;;;13.77;74.02;99523.59;10298122;23;20036;-81
2022/08/29 03:10:30;;;;;;;1999.90;999.90;;;;;;;13.66;74.03;99522.91;10295206;23;19931;-80
2022/08/29 03:14:35;;;;;;;1999.90;999.90;;;;;;;13.57;74.10;99523.88;10252618;23;20079;-81
2022/08/29 03:18:37;;;;;;;1999.90;999.90;;;;;;;13.50;75.44;99522.28;10249232;23;20035;-81
2022/08/29 03:22:40;;;;;;;1999.90;999.90;;;;;;;13.45;75.42;99516.22;10280180;23;20269;-80
2022/08/29 03:26:41;;;;;;;;;;;;;;;13.48;75.85;99519.69;10254212;23;20024;-81
2022/08/29 03:30:43;;;;;;;1999.90;999.90;;;;;;;13.49;75.88;99510.09;10245367;23;19930;-81
2022/08/29 03:34:46;;;;;;;1999.90;999.90;;;;;;;13.45;75.91;99519.69;10251189;23;20036;-80
2022/08/29 03:38:47;;;;;;;1999.90;999.90;;;;;;;13.44;76.14;99512.75;10293895;23;20075;-81
2022/08/29 03:42:49;;;;;;;1999.90;999.90;;;;;;;13.36;76.82;99517.22;10294513;23;20016;-81
2022/08/29 03:46:51;;;;;;;1999.90;999.90;;;;;;;13.40;76.43;99511.09;10248603;23;20028;-80
2022/08/29 03:50:53;;;;;;;1999.90;999.90;;;;;;;13.40;76.31;99510.22;10252631;23;20013;-81
2022/08/29 03:54:57;;;;;;;1999.90;999.90;;;;;;;13.37;76.49;99515.50;10252554;23;20104;-81
2022/08/29 03:59:00;;;;;;;1999.90;999.90;;;;;;;13.33;76.69;99509.47;10227670;23;20339;-81
2022/08/29 04:03:01;;;;;;;1999.90;999.90;;;;;;;13.23;76.41;99507.84;10252815;23;20024;-81
2022/08/29 04:07:05;;;;;;;1999.90;999.90;;;;;;;13.16;77.03;99512.25;10251976;23;20067;-80
2022/08/29 04:11:11;;;;;;;1999.90;999.90;;;;;;;13.15;77.29;99507.06;10250166;23;20024;-81
2022/08/29 04:15:13;;;;;;;1999.90;999.90;;;;;;;13.12;76.89;99512.31;10249179;23;20031;-80
2022/08/29 04:19:17;;;;;;;1999.90;999.90;;;;;;;13.05;76.93;99519.34;10251328;23;20104;-81
2022/08/29 04:23:19;;;;;;;1999.90;999.90;;;;;;;13.04;76.92;99512.41;10251432;23;20031;-81
2022/08/29 04:27:21;;;;;;;1999.90;999.90;;;;;;;13.07;77.32;99511.50;10293488;23;20027;-80
2022/08/29 04:31:22;;;;;;;1999.90;999.90;;;;;;;13.09;76.40;99512.34;10246202;22;20261;-80
2022/08/29 04:35:24;;;;;;;1999.90;999.90;;;;;;;13.08;76.72;99508.88;10226753;23;20120;-81
2022/08/29 04:39:25;;;;;;;1999.90;999.90;;;;;;;12.99;76.73;99515.06;10226930;23;20021;-80
2022/08/29 04:43:27;;;;;;;1999.90;999.90;;;;;;;12.97;77.06;99516.84;10227483;23;20400;-80
2022/08/29 04:47:29;;;;;;;1999.90;999.90;;;;;;;12.95;78.09;99515.13;10220722;23;20025;-80
2022/08/29 04:51:33;;;;;;;1999.90;999.90;;;;;;;13.02;77.82;99514.16;10199224;23;20360;-79
2022/08/29 04:55:35;;;;;;;1999.90;999.90;;;;;;;13.12;77.84;99509.72;10226645;23;20021;-80
2022/08/29 04:59:36;;;;;;;1999.90;999.90;;;;;;;13.26;76.84;99510.41;10200841;23;20036;-79
2022/08/29 05:03:38;;;;;;;1999.90;999.90;;;;;;;13.38;75.71;99512.84;10224884;23;20025;-80
2022/08/29 05:07:41;;;;;;;1999.90;999.90;;;;;;;13.45;75.54;99519.69;10201475;23;20021;-80
2022/08/29 05:11:42;;;;;;;1999.90;999.90;;;;;;;13.52;75.22;99523.09;10201918;23;20056;-80
2022/08/29 05:15:44;;;;;;;1999.90;999.90;;;;;;;13.68;75.31;99528.97;10195522;23;20029;-80
2022/08/29 05:19:46;;;;;;;1999.90;999.90;;;;;;;13.80;74.54;99529.63;10243800;23;20103;-80
2022/08/29 05:23:48;;;;;;;1999.90;999.90;;;;;;;14.02;74.05;99537.16;10201416;23;20064;-81
2022/08/29 05:28:23;;;;;;;1999.90;999.90;;;;;;;14.21;73.61;99534.19;10202118;23;20459;-81
2022/08/29 05:32:33;;;;;;;1999.90;999.90;;;;;;;14.46;72.63;99534.66;10224269;23;20021;-81
2022/08/29 05:36:41;;;;;;;1999.90;999.90;;;;;;;14.74;72.39;99537.66;10174702;23;20028;-82
2022/08/29 05:40:47;;;;;;;1999.90;999.90;;;;;;;15.03;70.50;99536.19;10228590;23;20031;-82
2022/08/29 05:45:06;;;;;;;1999.90;999.90;;;;;;;15.35;68.91;99536.41;10231901;23;20032;-81
2022/08/29 05:49:07;;;;;;;1999.90;999.90;;;;;;;15.68;69.09;99539.19;10254067;23;20025;-80
2022/08/29 05:53:11;;;;;;;1999.90;999.90;;;;;;;16.08;67.46;99543.50;10228403;23;20035;-80
2022/08/29 05:57:17;;;;;;;1999.90;999.90;;;;;;;16.75;64.83;99549.69;10252307;23;20084;-81
2022/08/29 06:01:46;;;;;;;1999.90;999.90;;;;;;;17.71;60.43;99544.28;10219847;23;20103;-80
2022/08/29 06:05:51;;;;;;;1999.90;999.90;;;;;;;18.02;58.28;99550.28;10222807;23;20688;-81
2022/08/29 06:09:59;;;;;;;1999.90;999.90;;;;;;;18.24;57.34;99554.84;10226141;23;20025;-81
2022/08/29 06:14:07;;;;;;;1999.90;999.90;;;;;;;18.41;56.44;99557.78;10205795;23;20487;-82
2022/08/29 06:18:26;;;;;;;1999.90;999.90;;;;;;;18.70;56.04;99562.94;10228827;23;20025;-82
2022/08/29 06:23:24;;;;;;;1999.90;999.90;;;;;;;18.99;54.64;99566.28;10229411;23;20025;-81
2022/08/29 06:27:34;;;;;;;1999.90;999.90;;;;;;;19.19;54.25;99558.53;10227335;23;20021;-81
2022/08/29 06:31:47;;;;;;;1999.90;999.90;;;;;;;19.57;52.62;99566.84;10257681;23;20116;-81
2022/08/29 06:35:49;;;;;;;1999.90;999.90;;;;;;;19.84;51.22;99567.53;10216671;23;20017;-81
2022/08/29 06:39:51;;;;;;;1999.90;999.90;;;;;;;20.06;50.53;99562.25;10204278;23;20025;-81
2022/08/29 06:43:56;;;;;;;1999.90;999.90;;;;;;;20.07;50.24;99564.81;10205435;23;20032;-82
2022/08/29 06:47:59;;;;;;;1999.90;999.90;;;;;;;20.14;49.80;99568.09;10232481;23;20558;-81
2022/08/29 06:52:03;;;;;;;1999.90;999.90;;;;;;;20.19;50.09;99552.91;10229586;23;20028;-81
2022/08/29 06:56:13;;;;;;;1999.90;999.90;;;;;;;20.34;49.06;99548.81;10203029;23;20032;-82
2022/08/29 07:00:44;;;;;;;1999.90;999.90;;;;;;;20.49;48.65;99556.97;10205910;23;20885;-80
2022/08/29 07:04:50;;;;;;;1999.90;999.90;;;;;;;20.81;48.10;99559.97;10229380;23;20052;-81
2022/08/29 07:08:51;;;;;;;1999.90;999.90;;;;;;;21.16;47.17;99555.78;10228981;23;20032;-81
2022/08/29 07:12:57;;;;;;;1999.90;999.90;;;;;;;21.39;46.36;99560.06;10202761;23;20091;-81
2022/08/29 07:16:59;;;;;;;1999.90;999.90;;;;;;;21.69;45.73;99563.91;10175121;23;20328;-79
2022/08/29 07:21:06;;;;;;;;;;;;;;;21.85;44.97;99568.47;10202627;23;20043;-79
2022/08/29 07:25:09;;;;;;;1999.90;999.90;;;;;;;21.98;44.72;99566.97;10180717;23;19916;-80
2022/08/29 07:29:18;;;;;;;1999.90;999.90;;;;;;;22.05;44.35;99576.34;10204834;23;20113;-81
2022/08/29 07:33:27;;;;;;;1999.90;999.90;;;;;;;21.96;44.23;99576.78;10206180;23;20035;-81
2022/08/29 07:37:40;;;;;;;1999.90;999.90;;;;;;;21.90;44.54;99577.03;10281793;23;20419;-81
2022/08/29 07:41:51;;;;;;;1999.90;999.90;;;;;;;21.87;45.10;99566.63;10252942;23;20020;-81
2022/08/29 07:46:19;;;;;;;1999.90;999.90;;;;;;;22.19;44.90;99571.25;10210155;23;20115;-81
2022/08/29 07:50:48;;;;;;;1999.90;999.90;;;;;;;22.43;43.91;99576.25;10157234;23;20025;-81
2022/08/29 07:54:58;;;;;;;1999.90;999.90;;;;;;;22.80;43.51;99572.59;10153231;23;20447;-81
2022/08/29 07:59:47;;;;;;;1999.90;999.90;;;;;;;23.30;42.35;99577.91;10155172;23;20619;-81
2022/08/29 08:04:42;;;;;;;1999.90;999.90;;;;;;;23.64;41.74;99581.41;10191996;23;20598;-81
2022/08/29 08:09:18;;;;;;;1999.90;999.90;;;;;;;23.68;41.38;99590.91;10150698;23;20357;-81
2022/08/29 08:14:09;;;;;;;1999.90;999.90;;;;;;;23.49;42.00;99593.69;10211088;23;20016;-81
2022/08/29 08:18:36;;;;;;;1999.90;999.90;;;;;;;23.57;42.25;99586.22;10196359;23;20025;-81
2022/08/29 08:23:13;;;;;;;1999.90;999.90;;;;;;;24.04;41.85;99599.47;10234099;23;20067;-82
2022/08/29 08:28:17;;;;;;;1999.90;999.90;;;;;;;24.56;40.83;99593.00;10278668;23;20028;-82
2022/08/29 08:32:58;;;;;;;1999.90;999.90;;;;;;;25.06;40.15;99598.00;10270514;23;20815;-81
2022/08/29 08:37:35;;;;;;;1999.90;999.90;;;;;;;25.37;38.31;99596.97;10226242;23;20059;-82
2022/08/29 08:42:06;;;;;;;1999.90;999.90;;;;;;;25.66;37.54;99597.81;10246009;23;20025;-81
2022/08/29 08:46:48;;;;;;;1999.90;999.90;;;;;;;25.87;37.71;99603.63;10236004;23;20561;-81
2022/08/29 08:51:31;;;;;;;1999.90;999.90;;;;;;;26.02;36.78;99599.94;10229020;23;20039;-81
2022/08/29 08:55:58;;;;;;;1999.90;999.90;;;;;;;26.11;36.37;99599.38;10226323;23;20032;-80
2022/08/29 09:00:05;;;;;;;1999.90;999.90;;;;;;;26.21;36.54;99602.28;10244957;23;20021;-80
2022/08/29 09:04:41;;;;;;;1999.90;999.90;;;;;;;26.19;36.63;99594.38;10219891;23;20609;-80
2022/08/29 09:08:58;;;;;;;1999.90;999.90;;;;;;;26.33;36.50;99595.28;10250001;23;20324;-79
2022/08/29 09:13:27;;;;;;;1999.90;999.90;;;;;;;26.46;36.13;99594.41;10266674;23;20108;-79
2022/08/29 09:17:40;;;;;;;1999.90;999.90;;;;;;;26.50;36.13;99598.59;10222051;23;20317;-81
2022/08/29 09:21:52;;;;;;;1999.90;999.90;;;;;;;26.64;35.99;99599.47;10251834;23;20021;-80
2022/08/29 09:25:54;;;;;;;1999.90;999.90;;;;;;;26.80;36.13;99601.00;10227361;23;20025;-79
2022/08/29 09:30:13;;;;;;;1999.90;999.90;;;;;;;26.91;35.48;99592.25;10226145;23;20363;-80
2022/08/29 09:34:33;;;;;;;1999.90;999.90;;;;;;;27.02;35.38;99584.41;10239295;23;20328;-80
2022/08/29 09:39:19;;;;;;;1999.90;999.90;;;;;;;27.12;34.87;99582.00;10251200;23;20028;-80
2022/08/29 09:43:29;;;;;;;1999.90;999.90;;;;;;;27.25;34.16;99579.28;10277780;23;20021;-81
2022/08/29 09:47:32;;;;;;;1999.90;999.90;;;;;;;27.31;34.34;99577.06;10245949;23;20020;-81
2022/08/29 09:51:47;;;;;;;1999.90;999.90;;;;;;;27.40;35.00;99567.56;10246912;23;20028;-80
2022/08/29 09:55:49;;;;;;;1999.90;999.90;;;;;;;27.56;34.39;99570.84;10249014;23;20028;-79
2022/08/29 10:00:12;;;;;;;1999.90;999.90;;;;;;;27.60;33.69;99568.78;10249566;23;20021;-80
2022/08/29 10:04:36;;;;;;;1999.90;999.90;;;;;;;27.69;34.06;99557.50;10255309;23;20085;-81
2022/08/29 10:08:40;;;;;;;1999.90;999.90;;;;;;;27.60;33.98;99553.63;10278346;23;20017;-81
2022/08/29 10:13:14;;;;;;;1999.90;999.90;;;;;;;27.72;33.96;99557.28;10253418;23;20020;-79
2022/08/29 10:21:56;;;;;;;1999.90;999.90;;;;;;;27.95;33.77;99545.75;10252186;23;20443;-80
2022/08/29 10:26:08;;;;;;;1999.90;999.90;;;;;;;28.12;33.41;99541.00;10253000;23;20031;-79
2022/08/29 10:30:22;;;;;;;1999.90;999.90;;;;;;;28.31;33.18;99543.19;10291368;22;20028;-79
2022/08/29 10:34:52;;;;;;;1999.90;999.90;;;;;;;28.46;33.05;99542.88;10276564;23;20028;-79
2022/08/29 10:39:19;;;;;;;1999.90;999.90;;;;;;;28.44;33.05;99538.63;10293775;23;20024;-79
2022/08/29 10:43:39;;;;;;;1999.90;999.90;;;;;;;28.47;33.16;99533.03;10278309;23;20029;-80
2022/08/29 10:48:07;;;;;;;1999.90;999.90;;;;;;;28.57;33.59;99531.38;10279416;23;20082;-80
2022/08/29 10:52:16;;;;;;;1999.90;999.90;;;;;;;28.53;33.56;99527.22;10268227;23;20048;-80
2022/08/29 10:56:23;;;;;;;1999.90;999.90;;;;;;;28.64;33.39;99529.06;10294480;23;20023;-79
2022/08/29 11:00:42;;;;;;;1999.90;999.90;;;;;;;28.89;33.66;99524.41;10263731;22;20020;-79
2022/08/29 11:04:49;;;;;;;1999.90;999.90;;;;;;;28.94;33.60;99518.72;10277371;23;20086;-79
2022/08/29 11:09:05;;;;;;;1999.90;999.90;;;;;;;28.96;33.06;99513.25;10249580;23;20024;-79
2022/08/29 11:13:19;;;;;;;1999.90;999.90;;;;;;;29.07;33.48;99510.56;10274581;23;20024;-77
2022/08/29 11:17:28;;;;;;;1999.90;999.90;;;;;;;29.13;32.93;99499.41;10242474;23;20024;-77
2022/08/29 11:21:54;;;;;;;1999.90;999.90;;;;;;;29.25;33.49;99502.91;10287240;23;20016;-77
2022/08/29 11:26:20;;;;;;;1999.90;999.90;;;;;;;29.27;33.33;99492.97;10271639;23;20080;-76
2022/08/29 11:30:36;;;;;;;1999.90;999.90;;;;;;;29.39;33.68;99494.63;10220763;23;20060;-77
2022/08/29 11:34:50;;;;;;;1999.90;999.90;;;;;;;29.54;34.10;99498.78;10243769;23;20024;-76
2022/08/29 11:39:06;;;;;;;1999.90;999.90;;;;;;;29.63;34.01;99487.34;10243324;23;20023;-77
2022/08/29 11:43:13;;;;;;;1999.90;999.90;;;;;;;29.72;33.29;99489.25;10241149;23;20017;-77
2022/08/29 11:47:46;;;;;;;1999.90;999.90;;;;;;;29.83;33.68;99471.47;10266915;23;20407;-77
2022/08/29 11:51:53;;;;;;;1999.90;999.90;;;;;;;29.89;33.38;99482.50;10244486;23;20023;-77
2022/08/29 11:56:12;;;;;;;1999.90;999.90;;;;;;;29.89;33.40;99477.16;10241651;23;20021;-77
2022/08/29 12:00:49;;;;;;;1999.90;999.90;;;;;;;30.01;33.58;99477.97;10282756;22;20482;-77
2022/08/29 12:04:56;;;;;;;1999.90;999.90;;;;;;;30.15;32.82;99479.50;10191010;23;20056;-77
2022/08/29 12:09:23;;;;;;;1999.90;999.90;;;;;;;30.30;32.49;99479.06;10243219;23;20044;-77
2022/08/29 12:13:45;;;;;;;1999.90;999.90;;;;;;;30.24;32.16;99474.22;10268620;23;20020;-76
2022/08/29 12:17:47;;;;;;;1999.90;999.90;;;;;;;30.44;32.06;99471.69;10214715;23;20024;-77
2022/08/29 12:22:03;;;;;;;1999.90;999.90;;;;;;;30.39;32.00;99464.06;10286869;23;20074;-77
2022/08/29 12:26:24;;;;;;;1999.90;999.90;;;;;;;30.39;31.89;99458.69;10216813;23;20048;-77
2022/08/29 12:30:30;;;;;;;1999.90;999.90;;;;;;;30.64;32.15;99452.09;10279301;23;20062;-77
2022/08/29 12:35:16;;;;;;;1999.90;999.90;;;;;;;30.52;31.36;99451.31;10243607;23;20035;-77
2022/08/29 12:39:37;;;;;;;1999.90;999.90;;;;;;;30.62;31.62;99448.69;10243368;23;20012;-77
2022/08/29 12:43:42;;;;;;;1999.90;999.90;;;;;;;30.57;31.11;99446.41;10270199;23;20052;-76
2022/08/29 12:47:47;;;;;;;1999.90;999.90;;;;;;;30.28;31.53;99442.66;10238959;23;20021;-77
2022/08/29 12:52:00;;;;;;;1999.90;999.90;;;;;;;30.24;31.96;99443.91;10244029;23;20024;-77
2022/08/29 12:56:16;;;;;;;1999.90;999.90;;;;;;;30.21;31.55;99422.75;10243280;23;20025;-76
2022/08/29 13:00:25;;;;;;;1999.90;999.90;;;;;;;30.25;31.22;99427.72;10236588;22;20055;-77
2022/08/29 13:04:32;;;;;;;1999.90;999.90;;;;;;;30.28;31.53;99423.91;10264757;23;20039;-76
2022/08/29 13:08:39;;;;;;;1999.90;999.90;;;;;;;30.26;31.34;99420.53;10255329;23;20009;-77
2022/08/29 13:12:42;;;;;;;1999.90;999.90;;;;;;;29.98;31.91;99417.50;10280947;23;20035;-76
2022/08/29 13:16:44;;;;;;;1999.90;999.90;;;;;;;29.96;31.54;99415.88;10260225;23;20021;-76
2022/08/29 13:21:02;;;;;;;1999.90;999.90;;;;;;;30.07;31.65;99403.34;10212508;23;20027;-76
2022/08/29 13:25:15;;;;;;;1999.90;999.90;;;;;;;30.38;31.76;99403.41;10230598;23;20028;-77
2022/08/29 13:29:35;;;;;;;1999.90;999.90;;;;;;;30.57;31.19;99399.97;10265128;23;20017;-76
2022/08/29 13:33:59;;;;;;;1999.90;999.90;;;;;;;30.69;30.98;99396.22;10234332;23;20301;-76
2022/08/29 13:38:16;;;;;;;1999.90;999.90;;;;;;;30.82;29.74;99388.81;10265693;23;20024;-77
2022/08/29 13:42:26;;;;;;;1999.90;999.90;;;;;;;31.05;30.34;99392.13;10239570;23;20031;-76
2022/08/29 13:46:29;;;;;;;1999.90;999.90;;;;;;;31.25;30.20;99399.31;10268884;23;20679;-76
2022/08/29 13:50:31;;;;;;;1999.90;999.90;;;;;;;31.46;29.90;99398.34;10240351;23;20056;-76
2022/08/29 13:54:33;;;;;;;1999.90;999.90;;;;;;;31.47;28.91;99381.25;10267467;23;20021;-76
2022/08/29 13:58:36;;;;;;;1999.90;999.90;;;;;;;31.51;29.18;99383.50;10268917;23;20027;-76
2022/08/29 14:02:38;;;;;;;1999.90;999.90;;;;;;;31.53;29.34;99384.22;10269631;23;20032;-76
2022/08/29 14:06:46;;;;;;;1999.90;999.90;;;;;;;31.44;29.12;99371.66;10267701;23;20027;-76
2022/08/29 14:10:47;;;;;;;1999.90;999.90;;;;;;;31.56;29.16;99366.97;10267294;23;20020;-77
2022/08/29 14:14:49;;;;;;;1999.90;999.90;;;;;;;31.79;29.49;99365.75;10241605;23;20017;-76
2022/08/29 14:18:52;;;;;;;1999.90;999.90;;;;;;;31.96;29.17;99369.56;10262843;23;20842;-76
2022/08/29 14:22:54;;;;;;;1999.90;999.90;;;;;;;32.04;28.67;99361.59;10242568;23;20031;-77
2022/08/29 14:26:56;;;;;;;1999.90;999.90;;;;;;;32.10;28.45;99358.34;10268783;23;20027;-77
2022/08/29 14:31:02;;;;;;;1999.90;999.90;;;;;;;32.10;28.50;99357.50;10262713;22;20028;-76
2022/08/29 14:35:05;;;;;;;1999.90;999.90;;;;;;;32.04;28.47;99352.69;10216613;23;20102;-76
2022/08/29 14:39:07;;;;;;;1999.90;999.90;;;;;;;32.05;28.28;99336.44;10267339;23;20024;-77
2022/08/29 14:43:09;;;;;;;1999.90;999.90;;;;;;;32.04;28.11;99339.28;10265447;23;20016;-76
2022/08/29 14:47:11;;;;;;;1999.90;999.90;;;;;;;32.06;28.18;99338.13;10267228;23;20119;-76
2022/08/29 14:51:13;;;;;;;1999.90;999.90;;;;;;;31.91;27.47;99341.41;10255892;23;20023;-76
2022/08/29 14:55:15;;;;;;;1999.90;999.90;;;;;;;31.85;28.28;99340.16;10282705;23;20020;-76
2022/08/29 14:59:18;;;;;;;1999.90;999.90;;;;;;;31.84;28.53;99331.25;10268355;23;20024;-76
2022/08/29 15:03:20;;;;;;;1999.90;999.90;;;;;;;31.87;28.47;99322.06;10261273;23;20052;-76
2022/08/29 15:07:21;;;;;;;1999.90;999.90;;;;;;;32.02;28.43;99327.81;10240551;23;20021;-76
2022/08/29 15:11:23;;;;;;;1999.90;999.90;;;;;;;32.07;28.91;99331.75;10240103;23;20024;-77
2022/08/29 15:15:27;;;;;;;1999.90;999.90;;;;;;;32.04;27.77;99331.22;10279758;22;20056;-76
2022/08/29 15:19:30;;;;;;;1999.90;999.90;;;;;;;31.93;28.38;99334.03;10264204;23;20020;-77
2022/08/29 15:23:51;;;;;;;1999.90;999.90;;;;;;;31.97;28.27;99327.41;10261961;23;20656;-76
2022/08/29 15:27:53;;;;;;;1999.90;999.90;;;;;;;31.86;28.22;99329.25;10262234;23;20047;-77
2022/08/29 15:31:58;;;;;;;1999.90;999.90;;;;;;;31.79;28.31;99322.78;10254825;23;20025;-77
2022/08/29 15:36:00;;;;;;;1999.90;999.90;;;;;;;31.77;28.30;99327.41;10261313;22;20031;-76
2022/08/29 15:40:03;;;;;;;1999.90;999.90;;;;;;;31.67;28.03;99310.47;10236156;23;20027;-76
2022/08/29 15:44:05;;;;;;;1999.90;999.90;;;;;;;31.20;28.55;99304.94;10234743;23;20090;-76
2022/08/29 15:48:07;;;;;;;1999.90;999.90;;;;;;;30.65;29.35;99307.19;10259854;23;20027;-77
2022/08/29 15:52:14;;;;;;;1999.90;999.90;;;;;;;30.18;29.69;99310.50;10234154;23;20100;-77
2022/08/29 15:56:16;;;;;;;1999.90;999.90;;;;;;;29.94;30.44;99306.22;10208915;23;20455;-76
2022/08/29 16:00:19;;;;;;;1999.90;999.90;;;;;;;30.10;29.86;99300.44;10232822;23;20031;-76
2022/08/29 16:04:31;;;;;;;1999.90;999.90;;;;;;;29.98;30.69;99305.00;10261192;23;20086;-77
2022/08/29 16:08:32;;;;;;;1999.90;999.90;;;;;;;30.20;30.77;99304.03;10233976;23;20111;-77
2022/08/29 16:12:35;;;;;;;1999.90;999.90;;;;;;;30.54;30.66;99293.88;10234030;23;20032;-77
2022/08/29 16:16:37;;;;;;;1999.90;999.90;;;;;;;30.84;29.91;99282.28;10258689;23;20052;-77
2022/08/29 16:20:38;;;;;;;1999.90;999.90;;;;;;;31.05;29.32;99289.34;10277150;23;20016;-77
2022/08/29 16:24:45;;;;;;;1999.90;999.90;;;;;;;31.16;28.93;99282.03;10239261;23;20020;-77
2022/08/29 16:28:47;;;;;;;1999.90;999.90;;;;;;;31.23;29.15;99287.72;10215055;23;20044;-76
2022/08/29 16:32:50;;;;;;;1999.90;999.90;;;;;;;31.01;29.50;99286.09;10238387;23;20035;-76
2022/08/29 16:36:55;;;;;;;1999.90;999.90;;;;;;;30.51;29.61;99291.44;10258610;23;20059;-76
2022/08/29 16:41:12;;;;;;;1999.90;999.90;;;;;;;30.00;30.72;99297.69;10280382;23;20020;-77
2022/08/29 16:45:14;;;;;;;1999.90;999.90;;;;;;;29.54;31.72;99291.88;10263101;23;20021;-77
2022/08/29 16:49:17;;;;;;;1999.90;999.90;;;;;;;29.24;31.83;99303.28;10236632;23;20533;-77
2022/08/29 16:53:19;;;;;;;1999.90;999.90;;;;;;;28.93;32.36;99297.78;10238635;23;20934;-77
2022/08/29 16:57:21;;;;;;;1999.90;999.90;;;;;;;28.66;32.67;99297.31;10264736;23;20020;-76
2022/08/29 17:01:22;;;;;;;1999.90;999.90;;;;;;;28.41;33.63;99298.44;10264568;23;20020;-76
2022/08/29 17:05:24;;;;;;;1999.90;999.90;;;;;;;28.15;33.72;99298.63;10238985;23;20085;-76
2022/08/29 17:17:31;;;;;;;1999.90;999.90;;;;;;;27.73;34.07;99293.94;10241005;23;20690;-76
2022/08/29 17:21:34;;;;;;;1999.90;999.90;;;;;;;27.62;34.20;99292.91;10266261;23;20028;-76
2022/08/29 17:25:35;;;;;;;1999.90;999.90;;;;;;;27.48;35.38;99293.13;10265321;23;20047;-76
2022/08/29 17:29:40;;;;;;;1999.90;999.90;;;;;;;27.34;34.93;99288.81;10241841;23;20107;-77
2022/08/29 17:33:42;;;;;;;1999.90;999.90;;;;;;;27.24;34.66;99290.47;10241547;23;20024;-77
2022/08/29 17:37:43;;;;;;;1999.90;999.90;;;;;;;27.16;35.12;99300.03;10241020;23;20059;-77
2022/08/29 17:41:49;;;;;;;1999.90;999.90;;;;;;;27.04;34.75;99289.28;10241631;23;20040;-77
2022/08/29 17:45:51;;;;;;;1999.90;999.90;;;;;;;26.92;35.04;99289.28;10242915;23;20016;-77
2022/08/29 17:49:53;;;;;;;1999.90;999.90;;;;;;;26.83;34.90;99295.31;10269591;23;20027;-77
2022/08/29 17:53:54;;;;;;;;;;;;;;;26.73;35.41;99297.78;10241269;23;20032;-77
2022/08/29 17:57:57;;;;;;;1999.90;999.90;;;;;;;26.61;35.70;99290.69;10242950;23;19920;-77
2022/08/29 18:01:59;;;;;;;1999.90;999.90;;;;;;;26.44;36.56;99291.91;10268984;23;20047;-76
2022/08/29 18:06:02;;;;;;;1999.90;999.90;;;;;;;26.26;36.41;99304.66;10240215;23;20083;-77
2022/08/29 18:10:06;;;;;;;1999.90;999.90;;;;;;;26.18;36.26;99304.34;10242722;23;20047;-76
2022/08/29 18:14:22;;;;;;;1999.90;999.90;;;;;;;26.08;36.57;99304.16;10283048;23;20025;-77
2022/08/29 18:18:24;;;;;;;1999.90;999.90;;;;;;;25.97;36.46;99305.84;10253643;23;20082;-77
2022/08/29 18:22:36;;;;;;;;;;;;;;;25.85;37.02;99307.53;10240012;23;20024;-77
2022/08/29 18:26:45;;;;;;;1999.90;999.90;;;;;;;25.74;37.24;99310.09;10265498;23;20390;-77
2022/08/29 18:31:10;;;;;;;1999.90;999.90;;;;;;;25.59;37.56;99315.44;10291837;23;20020;-76
2022/08/29 18:35:21;;;;;;;1999.90;999.90;;;;;;;25.48;37.56;99317.09;10268148;23;20058;-77